Weather observations for the past three days for
Branson
Imperial (Metric)
Date Time (cdt) Wind (mph) Vis. (mi.) Weather Sky Cond. Temperature (ºF) Relative Humidity Wind Chill (°F) Heat Index (°F) Pressure Precipitation (in)
Air Dwpt 6 hour altimeter (in) sea level (mb) 1 hr 3 hr 6 hr
Max. Min.
09 10:45 Calm 10.00 Fair CLR 71.6 55.4 57% 29.9 0.0
09 09:55 Calm 10.00 Fair CLR 68 55.4 64% 29.9 0.0
09 08:45 Calm 10.00 Fair CLR 64.4 55.4 73% 29.89 0.0
09 07:45 SW 6 10.00 Fair CLR 62.6 55.4 77% 29.89 0.0
09 06:45 Calm 10.00 Fair CLR 55.4 53.6 94% 29.86 0.0
09 06:15 Calm 10.00 Fair CLR 55.4 53.6 94% 29.84 0.0
09 05:55 Calm 10.00 Fair CLR 55.4 53.6 94% 29.84 0.0
09 05:35 Calm 10.00 Fair CLR 57.2 53.6 88% 29.84 0.0
09 05:15 Calm 10.00 Fair CLR 57.2 53.6 88% 29.84 0.0
09 04:55 Calm 10.00 Fair CLR 57.2 53.6 88% 29.85 0.0
09 04:35 W 3 10.00 A Few Clouds FEW022 57.2 53.6 88% 29.85 0.0
09 04:15 Calm 10.00 A Few Clouds FEW022 57.2 51.8 82% 29.85 0.0
09 03:55 Calm 10.00 A Few Clouds FEW024 57.2 51.8 82% 29.85 0.0
09 03:35 Calm 10.00 A Few Clouds FEW034 57.2 50 77% 29.86 0.0
09 03:15 Calm 10.00 Mostly Cloudy BKN038 57.2 50 77% 29.85 0.0
09 02:55 Calm 10.00 Partly Cloudy SCT041 57.2 50 77% 29.85 0.0
09 02:35 Calm 10.00 Mostly Cloudy BKN043 57.2 50 77% 29.85 0.0
09 02:15 Calm 10.00 Overcast BKN043 OVC050 57.2 50 77% 29.85 0.0
09 01:55 Calm 10.00 Mostly Cloudy BKN048 57.2 50 77% 29.85 0.0
09 01:35 Calm 10.00 A Few Clouds FEW048 59 48.2 68% 29.85 0.0
09 01:15 Calm 10.00 Fair CLR 59 48.2 68% 29.85 0.0
09 00:55 Calm 10.00 Fair CLR 60.8 48.2 63% 29.86 0.0
09 00:35 Calm 10.00 Fair CLR 60.8 48.2 63% 29.86 0.0
09 00:15 Calm 10.00 Fair CLR 62.6 48.2 60% 29.87 0.0
08 23:55 Calm 10.00 Fair CLR 64.4 48.2 56% 29.87 0.0
08 23:35 W 5 10.00 A Few Clouds FEW085 64.4 48.2 56% 29.87 0.0
08 23:15 W 3 10.00 Mostly Cloudy BKN095 64.4 50 60% 29.87 0.0
08 22:55 W 9 10.00 Mostly Cloudy BKN095 64.4 48.2 56% 29.85 0.0
08 22:35 W 3 10.00 A Few Clouds FEW095 64.4 48.2 56% 29.83 0.0
08 22:15 W 7 10.00 Fair CLR 66.2 48.2 52% 29.82 0.0
08 21:55 SW 7 10.00 Fair CLR 66.2 46.4 49% 29.8 0.0
08 21:35 W 3 10.00 A Few Clouds FEW110 66.2 48.2 52% 29.8 0.0
08 21:15 SW 6 10.00 Mostly Cloudy FEW050 FEW080 BKN110 66.2 50 56% 29.8 0.0
08 20:45 S 7 10.00 Mostly Cloudy FEW034 SCT080 BKN120 66.2 53.6 64% 29.79 0.0
08 19:45 SW 5 10.00 Mostly Cloudy FEW055 BKN100 BKN120 68 50 53% 29.82 0.0
08 18:45 Calm 10.00 Partly Cloudy SCT100 71.6 48.2 44% 29.8 0.0
08 17:45 SW 5 10.00 Fair CLR 75.2 44.6 34% 77 29.8 0.0
08 16:45 Calm 10.00 Fair CLR 77 46.4 34% 78 29.79 0.0
08 15:45 S 3 10.00 Fair CLR 77 48.2 36% 78 29.81 0.0
08 14:45 S 6 10.00 Fair CLR 75.2 46.4 36% 77 29.85 0.0
08 13:45 SW 6 10.00 Fair CLR 73.4 46.4 38% 29.88 0.0
08 12:45 SW 5 10.00 Fair CLR 71.6 48.2 44% 29.9 0.0
08 11:45 SW 7 10.00 Fair CLR 71.6 50 47% 29.93 0.0
08 10:45 S 6 10.00 Fair CLR 68 50 53% 29.96 0.0
08 09:45 Calm 10.00 Fair CLR 66.2 50 56% 29.96 0.0
08 08:45 Calm 10.00 Fair CLR 62.6 50 64% 29.97 0.0
08 07:45 Calm 10.00 Fair CLR 57.2 46.4 67% 29.97 0.0
08 06:45 Calm 10.00 Fair CLR 51.8 42.8 72% 29.97 0.0
08 06:15 Calm 10.00 Fair CLR 51.8 42.8 72% 29.96 0.0
08 05:55 S 5 10.00 Fair CLR 53.6 42.8 67% 29.95 0.0
08 05:35 S 5 10.00 A Few Clouds FEW055 53.6 42.8 67% 29.95 0.0
08 05:15 S 5 10.00 A Few Clouds FEW055 51.8 42.8 72% 29.95 0.0
08 04:55 Calm 10.00 Fair CLR 50 42.8 76% 29.94 0.0
08 04:35 S 6 10.00 Fair CLR 50 42.8 76% 48 29.95 0.0
08 04:15 Calm 10.00 Fair CLR 51.8 42.8 72% 29.95 0.0
08 03:55 S 5 10.00 Fair CLR 51.8 42.8 72% 29.95 0.0
08 03:35 Calm 10.00 Fair CLR 50 42.8 76% 29.96 0.0
08 03:15 Calm 10.00 Fair CLR 50 44.6 82% 29.96 0.0
08 02:55 Calm 10.00 Fair CLR 51.8 42.8 72% 29.97 0.0
08 02:35 Calm 10.00 Fair CLR 53.6 42.8 67% 29.96 0.0
08 02:15 S 3 10.00 Fair CLR 53.6 42.8 67% 29.97 0.0
08 01:55 S 5 10.00 Fair CLR 53.6 44.6 72% 29.98 0.0
08 01:35 Calm 10.00 Fair CLR 53.6 44.6 72% 29.99 0.0
08 01:15 Calm 10.00 Fair CLR 51.8 44.6 77% 30 0.0
08 00:55 Calm 10.00 Fair CLR 51.8 44.6 77% 30 0.0
08 00:35 Calm 10.00 Fair CLR 51.8 42.8 72% 30 0.0
08 00:15 Calm 10.00 Fair CLR 53.6 42.8 67% 30 0.0
07 23:55 Calm 10.00 Fair CLR 53.6 41 63% 30 0.0
07 23:35 Calm 10.00 Fair CLR 51.8 42.8 72% 30.01 0.0
07 23:15 Calm 10.00 Fair CLR 53.6 41 63% 30.01 0.0
07 22:55 Calm 10.00 Fair CLR 53.6 41 63% 30.01 0.0
07 22:35 Calm 10.00 Fair CLR 53.6 41 63% 30.01 0.0
07 22:15 Calm 10.00 Fair CLR 55.4 41 59% 30 0.0
07 21:55 Calm 10.00 Fair CLR 55.4 41 59% 30 0.0
07 21:35 Calm 10.00 Fair CLR 53.6 41 63% 30 0.0
07 21:15 Calm 10.00 Fair CLR 55.4 41 59% 29.99 0.0
07 20:45 Calm 10.00 Fair CLR 53.6 44.6 72% 29.97 0.0
07 19:45 Calm 10.00 Fair CLR 59 41 51% 29.97 0.0
07 18:45 Calm 10.00 Fair CLR 64.4 39.2 40% 29.97 0.0
07 16:45 Calm 10.00 Fair CLR 66.2 37.4 35% 29.99 0.0
07 15:45 SE 3 10.00 Fair CLR 66.2 37.4 35% 30.01 0.0
07 14:45 Calm 10.00 Fair CLR 64.4 35.6 34% 30.03 0.0
07 13:45 Calm 10.00 Fair CLR 62.6 33.8 34% 30.04 0.0
07 12:45 Calm 10.00 Fair CLR 62.6 33.8 34% 30.08 0.0
07 11:45 SW 3 10.00 Fair CLR 59 35.6 42% 30.09 0.0
07 10:45 E 3 10.00 Fair CLR 57.2 33.8 41% 30.11 0.0
07 09:45 Calm 10.00 Fair CLR 55.4 35.6 47% 30.11 0.0
07 08:45 S 3 10.00 Fair CLR 53.6 39.2 58% 30.11 0.0
07 07:45 Calm 10.00 Fair CLR 48.2 39.2 71% 30.11 0.0
07 06:45 Calm 10.00 Partly Cloudy SCT110 41 37.4 87% 30.09 0.0
07 06:15 Calm 10.00 Mostly Cloudy BKN110 39.2 39.2 100% 30.09 0.0
07 05:55 Calm 10.00 Mostly Cloudy BKN110 39.2 39.2 100% 30.09 0.0
07 05:35 Calm 10.00 Mostly Cloudy BKN110 41 37.4 87% 30.08 0.0
07 05:15 Calm 10.00 A Few Clouds FEW050 39.2 37.4 93% 30.09 0.0
07 04:55 Calm 10.00 Partly Cloudy SCT050 39.2 37.4 93% 30.09 0.0
07 04:35 Calm 10.00 Partly Cloudy SCT050 39.2 37.4 93% 30.09 0.0
07 04:15 SW 5 10.00 A Few Clouds FEW047 41 37.4 87% 38 30.09 0.0
07 03:55 Calm 10.00 A Few Clouds FEW045 37.4 37.4 100% 30.07 0.0
07 03:35 Calm 10.00 Partly Cloudy SCT045 39.2 39.2 100% 30.06 0.0
07 03:15 Calm 10.00 Partly Cloudy SCT047 39.2 39.2 100% 30.07 0.0
07 02:55 Calm 10.00 A Few Clouds FEW045 39.2 39.2 100% 30.08 0.0
07 02:35 Calm 10.00 Partly Cloudy SCT043 39.2 39.2 100% 30.08 0.0
07 02:15 Calm 10.00 Partly Cloudy SCT045 41 39.2 93% 30.08 0.0
07 01:55 Calm 10.00 Partly Cloudy SCT045 42.8 39.2 87% 30.08 0.0
07 01:35 Calm 10.00 Partly Cloudy SCT045 44.6 39.2 81% 30.08 0.0
07 01:15 Calm 10.00 Partly Cloudy SCT043 44.6 39.2 81% 30.09 0.0
07 00:55 Calm 10.00 A Few Clouds FEW046 44.6 39.2 81% 30.08 0.0
07 00:35 Calm 10.00 Fair CLR 44.6 41 87% 30.08 0.0
07 00:15 Calm 10.00 A Few Clouds FEW042 44.6 41 87% 30.07 0.0
06 23:55 NW 5 10.00 A Few Clouds FEW042 46.4 41 82% 45 30.07 0.0
06 23:35 Calm 10.00 A Few Clouds FEW042 46.4 41 82% 30.06 0.0
06 23:15 Calm 10.00 A Few Clouds FEW042 46.4 42.8 87% 30.06 0.0
06 22:55 Calm 10.00 Fair CLR 44.6 44.6 100% 30.06 0.0
06 22:35 Calm 10.00 A Few Clouds FEW050 44.6 44.6 100% 30.06 0.0
06 22:15 Calm 10.00 Mostly Cloudy BKN060 44.6 44.6 100% 30.06 0.0
06 21:55 Calm 10.00 Overcast OVC060 46.4 46.4 100% 30.05 0.0
06 21:35 Calm 10.00 Mostly Cloudy BKN060 46.4 46.4 100% 30.05 0.0
06 21:15 Calm 10.00 Mostly Cloudy BKN060 48.2 46.4 94% 30.04 0.0
06 20:45 Calm 10.00 Mostly Cloudy BKN060 48.2 48.2 100% 30.04 0.0
06 19:45 Calm 10.00 Fair CLR 55.4 39.2 55% 30.03 0.0
06 18:45 N 9 10.00 Mostly Cloudy BKN050 59 39.2 48% 30.02 0.0
06 17:45 NE 6 10.00 Fair CLR 59 41 51% 29.98 0.0
06 16:45 NE 5 10.00 Mostly Cloudy BKN044 59 42.8 55% 30 0.0
06 15:45 NE 5 10.00 Overcast OVC042 57.2 41 55% 30.02 0.0
06 14:45 N 7 10.00 Mostly Cloudy BKN035 BKN040 57.2 42.8 59% 30.04 0.0
06 13:45 N 14 10.00 Partly Cloudy FEW038 SCT049 57.2 41 55% 30.05 0.0
06 12:45 NE 5 10.00 Overcast OVC049 55.4 41 59% 30.07 0.0
06 11:45 Calm 10.00 Mostly Cloudy BKN047 53.6 41 63% 30.08 0.0
Date Time (cdt) Wind (mph) Vis. (mi.) Weather Sky Cond. Air Dwpt Max. Min. Relative Humidity Wind Chill (°F) Heat Index (°F) altimeter (in) sea level (mb) 1 hr 3 hr 6 hr
6 hour
Temperature (ºF) Pressure Precipitation (in)